createdAt,value
2022-08-21T00:00:43.585Z,20.98
2022-08-21T00:03:13.762Z,21.03
2022-08-21T00:05:44.343Z,21.06
2022-08-21T00:08:13.175Z,20.99
2022-08-21T00:10:42.169Z,20.92
2022-08-21T00:13:13.089Z,20.92
2022-08-21T00:15:47.385Z,20.78
2022-08-21T00:18:16.112Z,20.64
2022-08-21T00:20:45.839Z,20.54
2022-08-21T00:23:15.214Z,20.55
2022-08-21T00:25:43.956Z,20.59
2022-08-21T00:28:14.762Z,20.54
2022-08-21T00:30:44.328Z,20.53
2022-08-21T00:33:13.272Z,20.44
2022-08-21T00:35:43.574Z,20.47
2022-08-21T00:38:13.052Z,20.52
2022-08-21T00:40:46.977Z,20.53
2022-08-21T00:43:19.978Z,20.60
2022-08-21T00:45:49.058Z,20.52
2022-08-21T00:48:17.252Z,20.59
2022-08-21T00:50:50.529Z,20.60
2022-08-21T00:53:19.276Z,20.59
2022-08-21T00:55:48.377Z,20.54
2022-08-21T00:58:20.179Z,20.44
2022-08-21T01:00:50.754Z,20.34
2022-08-21T01:03:23.729Z,20.29
2022-08-21T01:05:52.666Z,20.19
2022-08-21T01:08:22.890Z,20.26
2022-08-21T01:10:54.796Z,20.26
2022-08-21T01:13:31.446Z,20.18
2022-08-21T01:16:02.622Z,20.13
2022-08-21T01:18:31.089Z,20.11
2022-08-21T01:21:10.056Z,20.13
2022-08-21T01:23:43.969Z,20.17
2022-08-21T01:26:13.206Z,20.14
2022-08-21T01:28:46.169Z,20.24
2022-08-21T01:31:17.164Z,20.32
2022-08-21T01:33:52.308Z,20.33
2022-08-21T01:36:22.103Z,20.36
2022-08-21T01:38:50.924Z,20.38
2022-08-21T01:41:19.581Z,20.31
2022-08-21T01:43:47.849Z,20.27
2022-08-21T01:46:16.937Z,20.28
2022-08-21T01:48:45.425Z,20.25
2022-08-21T01:51:13.986Z,20.13
2022-08-21T01:53:43.587Z,20.11
2022-08-21T01:56:14.611Z,20.13
2022-08-21T01:58:44.212Z,20.11
2022-08-21T02:01:12.754Z,20.09
2022-08-21T02:03:41.662Z,20.07
2022-08-21T02:06:15.941Z,20.10
2022-08-21T02:08:46.039Z,20.12
2022-08-21T02:11:14.297Z,20.09
2022-08-21T02:13:42.465Z,20.11
2022-08-21T02:16:11.208Z,20.03
2022-08-21T02:18:41.842Z,20.04
2022-08-21T02:21:10.463Z,19.97
2022-08-21T02:23:38.591Z,19.92
2022-08-21T02:26:10.700Z,19.90
2022-08-21T02:28:39.551Z,19.88
2022-08-21T02:31:08.902Z,19.83
2022-08-21T02:33:37.246Z,19.74
2022-08-21T02:36:06.702Z,19.67
2022-08-21T02:38:39.063Z,19.66
2022-08-21T02:41:11.083Z,19.63
2022-08-21T02:43:39.306Z,19.61
2022-08-21T02:46:09.474Z,19.61
2022-08-21T02:48:38.382Z,19.60
2022-08-21T02:51:08.887Z,19.65
2022-08-21T02:53:37.733Z,19.64
2022-08-21T02:56:11.725Z,19.66
2022-08-21T02:58:42.367Z,19.67
2022-08-21T03:01:11.642Z,19.69
2022-08-21T03:03:41.947Z,19.71
2022-08-21T03:06:12.537Z,19.71
2022-08-21T03:08:41.293Z,19.63
2022-08-21T03:11:10.860Z,19.65
2022-08-21T03:13:42.016Z,19.58
2022-08-21T03:16:10.759Z,19.64
2022-08-21T03:18:39.942Z,19.66
2022-08-21T03:21:08.997Z,19.66
2022-08-21T03:23:37.281Z,19.72
2022-08-21T03:26:06.140Z,19.69
2022-08-21T03:28:37.592Z,19.65
2022-08-21T03:31:06.705Z,19.64
2022-08-21T03:33:35.053Z,19.57
2022-08-21T03:36:06.470Z,19.56
2022-08-21T03:38:36.119Z,19.51
2022-08-21T03:41:05.036Z,19.52
2022-08-21T03:43:34.453Z,19.51
2022-08-21T03:46:05.464Z,19.53
2022-08-21T03:48:34.537Z,19.51
2022-08-21T03:51:03.223Z,19.53
2022-08-21T03:53:31.930Z,19.54
2022-08-21T03:56:00.552Z,19.56
2022-08-21T03:58:30.071Z,19.54
2022-08-21T04:01:00.605Z,19.54
2022-08-21T04:03:30.745Z,19.59
2022-08-21T04:05:58.916Z,19.65
2022-08-21T04:08:27.462Z,19.63
2022-08-21T04:10:59.137Z,19.62
2022-08-21T04:13:29.191Z,19.66
2022-08-21T04:15:59.081Z,19.69
2022-08-21T04:18:27.297Z,19.69
2022-08-21T04:20:59.759Z,19.73
2022-08-21T04:23:28.855Z,19.77
2022-08-21T04:25:58.368Z,19.79
2022-08-21T04:28:30.382Z,19.81
2022-08-21T04:30:59.639Z,19.86
2022-08-21T04:33:28.094Z,19.86
2022-08-21T04:35:57.681Z,19.83
2022-08-21T04:38:25.935Z,19.79
2022-08-21T04:40:58.570Z,19.79
2022-08-21T04:43:27.067Z,19.84
2022-08-21T04:45:55.827Z,19.84
2022-08-21T04:48:26.227Z,19.88
2022-08-21T04:51:00.627Z,19.90
2022-08-21T04:53:33.898Z,19.95
2022-08-21T04:56:06.151Z,20.06
2022-08-21T04:58:34.572Z,20.13
2022-08-21T05:01:05.075Z,20.17
2022-08-21T05:03:35.233Z,20.16
2022-08-21T05:06:06.930Z,20.16
2022-08-21T05:08:36.080Z,20.16
2022-08-21T05:11:05.106Z,20.19
2022-08-21T05:13:33.553Z,20.15
2022-08-21T05:16:01.963Z,20.19
2022-08-21T05:18:30.150Z,20.17
2022-08-21T05:21:01.142Z,20.22
2022-08-21T05:23:30.830Z,20.21
2022-08-21T05:25:59.343Z,20.18
2022-08-21T05:28:28.083Z,20.16
2022-08-21T05:30:56.441Z,20.07
2022-08-21T05:33:24.889Z,20.03
2022-08-21T05:35:54.346Z,20.08
2022-08-21T05:38:22.506Z,20.12
2022-08-21T05:40:52.400Z,20.14
2022-08-21T05:43:20.706Z,20.19
2022-08-21T05:45:49.100Z,20.22
2022-08-21T05:48:19.069Z,20.28
2022-08-21T05:50:48.709Z,20.28
2022-08-21T05:53:19.281Z,20.37
2022-08-21T05:55:48.068Z,20.37
2022-08-21T05:58:19.309Z,20.35
2022-08-21T06:00:49.375Z,20.41
2022-08-21T06:03:21.957Z,20.49
2022-08-21T06:05:51.501Z,20.59
2022-08-21T06:08:21.190Z,20.63
2022-08-21T06:10:51.421Z,20.65
2022-08-21T06:13:22.898Z,20.67
2022-08-21T06:16:03.168Z,20.66
2022-08-21T06:18:34.517Z,20.71
2022-08-21T06:21:02.764Z,20.60
2022-08-21T06:23:34.036Z,20.63
2022-08-21T06:26:03.564Z,20.68
2022-08-21T06:28:35.769Z,20.72
2022-08-21T06:31:11.605Z,20.61
2022-08-21T06:33:40.019Z,20.45
2022-08-21T06:36:09.091Z,20.41
2022-08-21T06:38:38.811Z,20.39
2022-08-21T06:41:10.233Z,20.34
2022-08-21T06:43:40.489Z,20.43
2022-08-21T06:46:09.278Z,20.40
2022-08-21T06:48:37.852Z,20.52
2022-08-21T06:51:06.550Z,20.56
2022-08-21T06:53:35.572Z,20.63
2022-08-21T06:56:09.650Z,20.55
2022-08-21T06:58:39.668Z,20.53
2022-08-21T07:01:09.476Z,20.53
2022-08-21T07:03:41.404Z,20.57
2022-08-21T07:06:14.975Z,20.70
2022-08-21T07:08:46.276Z,20.74
2022-08-21T07:11:19.713Z,20.80
2022-08-21T07:13:50.360Z,20.86
2022-08-21T07:16:18.829Z,20.90
2022-08-21T07:18:47.092Z,20.94
2022-08-21T07:21:15.417Z,20.90
2022-08-21T07:23:46.182Z,20.90
2022-08-21T07:26:16.465Z,20.99
2022-08-21T07:28:44.921Z,20.92
2022-08-21T07:31:19.346Z,20.97
2022-08-21T07:33:50.741Z,20.99
2022-08-21T07:36:19.528Z,20.96
2022-08-21T07:38:47.659Z,21.03
2022-08-21T07:41:18.405Z,21.17
2022-08-21T07:46:17.303Z,21.29
2022-08-21T07:48:45.510Z,21.29
2022-08-21T07:51:16.398Z,21.31
2022-08-21T07:53:49.263Z,21.35
2022-08-21T07:56:18.124Z,21.49
2022-08-21T07:58:46.569Z,21.54
2022-08-21T08:01:16.423Z,21.52
2022-08-21T08:03:46.121Z,21.64
2022-08-21T08:06:14.905Z,21.83
2022-08-21T08:08:43.878Z,21.94
2022-08-21T08:11:16.192Z,21.92
2022-08-21T08:13:47.741Z,21.79
2022-08-21T08:16:17.692Z,21.67
2022-08-21T08:18:46.535Z,21.69
2022-08-21T08:21:15.702Z,21.68
2022-08-21T08:23:45.136Z,21.72
2022-08-21T08:26:13.740Z,21.85
2022-08-21T08:28:41.964Z,21.97
2022-08-21T08:31:10.438Z,22.06
2022-08-21T08:33:40.067Z,22.33
2022-08-21T08:36:15.776Z,22.52
2022-08-21T08:38:44.270Z,22.57
2022-08-21T08:41:15.437Z,22.66
2022-08-21T08:43:51.468Z,22.69
2022-08-21T08:46:28.263Z,22.72
2022-08-21T08:49:03.959Z,22.77
2022-08-21T08:51:39.592Z,22.61
2022-08-21T08:54:13.847Z,22.68
2022-08-21T08:56:42.914Z,22.74
2022-08-21T08:59:17.417Z,22.72
2022-08-21T09:01:46.137Z,22.75
2022-08-21T09:04:24.878Z,22.87
2022-08-21T09:07:03.681Z,22.98
2022-08-21T09:09:42.541Z,22.97
2022-08-21T09:12:18.098Z,23.00
2022-08-21T09:15:14.284Z,23.15
2022-08-21T09:18:09.879Z,23.36
2022-08-21T09:20:49.377Z,23.49
2022-08-21T09:23:29.894Z,23.68
2022-08-21T09:26:15.539Z,23.83
2022-08-21T09:28:44.550Z,23.96
2022-08-21T09:31:23.350Z,23.76
2022-08-21T09:33:59.833Z,23.76
2022-08-21T09:36:36.474Z,23.75
2022-08-21T09:39:06.219Z,24.09
2022-08-21T09:41:37.546Z,24.08
2022-08-21T09:44:08.076Z,24.31
2022-08-21T09:46:36.694Z,24.45
2022-08-21T09:49:06.827Z,24.62
2022-08-21T09:51:55.219Z,24.85
2022-08-21T09:54:31.352Z,25.00
2022-08-21T09:57:19.469Z,24.44
2022-08-21T09:59:49.664Z,24.26
2022-08-21T10:02:28.023Z,24.41
2022-08-21T10:04:58.852Z,24.39
2022-08-21T10:07:31.596Z,24.25
2022-08-21T10:10:06.321Z,24.15
2022-08-21T10:12:45.282Z,24.14
2022-08-21T10:15:22.249Z,24.28
2022-08-21T10:18:00.077Z,24.22
2022-08-21T10:20:37.710Z,24.61
2022-08-21T10:23:29.924Z,24.95
2022-08-21T10:26:13.355Z,25.26
2022-08-21T10:28:52.968Z,25.01
2022-08-21T10:31:34.642Z,24.94
2022-08-21T10:34:17.101Z,24.91
2022-08-21T10:36:53.396Z,24.93
2022-08-21T10:39:36.567Z,24.47
2022-08-21T10:42:19.648Z,24.45
2022-08-21T10:45:04.912Z,24.52
2022-08-21T10:47:37.537Z,24.46
2022-08-21T10:50:14.583Z,24.50
2022-08-21T10:52:57.026Z,24.35
2022-08-21T10:55:34.057Z,24.40
2022-08-21T10:58:07.152Z,24.49
2022-08-21T11:00:41.134Z,24.38
2022-08-21T11:03:16.150Z,24.62
2022-08-21T11:05:50.963Z,24.87
2022-08-21T11:08:29.628Z,24.91
2022-08-21T11:11:04.923Z,24.85
2022-08-21T11:13:42.736Z,24.63
2022-08-21T11:16:21.009Z,24.47
2022-08-21T11:18:55.648Z,24.60
2022-08-21T11:21:38.459Z,24.63
2022-08-21T11:24:19.817Z,24.50
2022-08-21T11:26:55.394Z,24.39
2022-08-21T11:29:28.858Z,24.62
2022-08-21T11:32:03.098Z,24.71
2022-08-21T11:34:38.709Z,24.80
2022-08-21T11:37:15.294Z,25.01
2022-08-21T11:39:52.995Z,25.21
2022-08-21T11:42:31.356Z,25.24
2022-08-21T11:45:16.235Z,25.12
2022-08-21T11:47:56.815Z,25.12
2022-08-21T11:50:34.296Z,25.27
2022-08-21T11:53:10.599Z,25.00
2022-08-21T11:55:43.709Z,24.74
2022-08-21T11:58:20.307Z,24.60
2022-08-21T12:00:53.701Z,24.82
2022-08-21T12:03:29.047Z,24.88
2022-08-21T12:06:01.025Z,24.71
2022-08-21T12:08:31.881Z,24.58
2022-08-21T12:11:06.439Z,24.54
2022-08-21T12:13:42.032Z,24.44
2022-08-21T12:16:16.406Z,24.41
2022-08-21T12:18:45.426Z,24.37
2022-08-21T12:21:25.537Z,24.38
2022-08-21T12:24:05.459Z,24.36
2022-08-21T12:26:36.364Z,24.38
2022-08-21T12:29:15.140Z,24.49
2022-08-21T12:31:52.632Z,24.56
2022-08-21T12:34:23.451Z,24.57
2022-08-21T12:36:57.220Z,24.60
2022-08-21T12:39:28.466Z,24.43
2022-08-21T12:42:02.615Z,24.53
2022-08-21T12:44:39.312Z,24.70
2022-08-21T12:47:15.957Z,24.59
2022-08-21T12:49:54.218Z,24.64
2022-08-21T12:52:25.033Z,24.53
2022-08-21T12:54:53.252Z,24.38
2022-08-21T12:57:24.433Z,24.34
2022-08-21T13:00:00.607Z,24.28
2022-08-21T13:02:36.975Z,24.22
2022-08-21T13:05:08.383Z,24.15
2022-08-21T13:07:39.613Z,24.07
2022-08-21T13:10:18.855Z,23.93
2022-08-21T13:12:48.561Z,23.80
2022-08-21T13:15:33.137Z,23.78
2022-08-21T13:18:04.490Z,23.67
2022-08-21T13:20:35.417Z,23.51
2022-08-21T13:23:04.446Z,23.28
2022-08-21T13:25:38.623Z,23.21
2022-08-21T13:28:10.013Z,23.30
2022-08-21T13:30:45.871Z,23.27
2022-08-21T13:33:17.300Z,23.27
2022-08-21T13:35:52.120Z,23.12
2022-08-21T13:38:27.003Z,23.07
2022-08-21T13:41:00.242Z,23.07
2022-08-21T13:43:30.904Z,23.00
2022-08-21T13:46:02.502Z,23.02
2022-08-21T13:48:35.962Z,23.02
2022-08-21T13:51:05.336Z,23.04
2022-08-21T13:53:36.961Z,23.07
2022-08-21T13:56:07.126Z,22.99
2022-08-21T13:58:44.639Z,22.91
2022-08-21T14:01:25.070Z,22.85
2022-08-21T14:03:56.876Z,22.74
2022-08-21T14:06:28.204Z,22.48
2022-08-21T14:09:00.172Z,22.43
2022-08-21T14:11:30.202Z,22.26
2022-08-21T14:14:01.987Z,22.18
2022-08-21T14:16:45.233Z,22.13
2022-08-21T14:19:23.980Z,22.08
2022-08-21T14:21:52.734Z,22.12
2022-08-21T14:24:29.508Z,22.13
2022-08-21T14:27:00.656Z,22.17
2022-08-21T14:29:34.742Z,22.16
2022-08-21T14:32:16.565Z,22.15
2022-08-21T14:34:52.761Z,22.07
2022-08-21T14:37:23.316Z,22.04
2022-08-21T14:39:51.804Z,22.02
2022-08-21T14:42:20.330Z,22.00
2022-08-21T14:44:49.088Z,22.02
2022-08-21T14:47:19.763Z,22.04
2022-08-21T14:49:51.378Z,21.96
2022-08-21T14:52:19.663Z,22.05
2022-08-21T14:54:48.048Z,22.00
2022-08-21T14:57:16.187Z,22.11
2022-08-21T14:59:44.566Z,22.20
2022-08-21T15:02:13.301Z,22.18
2022-08-21T15:04:44.601Z,22.23
2022-08-21T15:07:12.975Z,22.24
2022-08-21T15:09:41.255Z,22.25
2022-08-21T15:12:11.031Z,22.24
2022-08-21T15:14:42.520Z,22.23
2022-08-21T15:17:13.144Z,22.21
2022-08-21T15:19:42.920Z,22.15
2022-08-21T15:22:19.117Z,22.13
2022-08-21T15:24:56.581Z,22.10
2022-08-21T15:27:25.710Z,22.10
2022-08-21T15:29:55.316Z,22.08
2022-08-21T15:32:27.253Z,22.12
2022-08-21T15:35:01.147Z,22.10
2022-08-21T15:37:30.642Z,22.10
2022-08-21T15:39:59.349Z,22.08
2022-08-21T15:42:28.819Z,22.04
2022-08-21T15:44:58.296Z,22.03
2022-08-21T15:47:30.820Z,21.94
2022-08-21T15:50:00.581Z,21.82
2022-08-21T15:52:28.899Z,21.77
2022-08-21T15:54:57.117Z,21.69
2022-08-21T15:57:26.922Z,21.67
2022-08-21T16:00:00.012Z,21.72
2022-08-21T16:02:31.250Z,21.71
2022-08-21T16:05:01.938Z,21.65
2022-08-21T16:07:30.094Z,21.66
2022-08-21T16:09:58.316Z,21.65
2022-08-21T16:12:29.372Z,21.60
2022-08-21T16:14:57.846Z,21.53
2022-08-21T16:17:30.030Z,21.57
2022-08-21T16:19:58.785Z,21.46
2022-08-21T16:22:42.172Z,21.42
2022-08-21T16:25:14.037Z,21.28
2022-08-21T16:27:45.200Z,21.25
2022-08-21T16:30:15.427Z,21.22
2022-08-21T16:32:44.596Z,21.13
2022-08-21T16:35:15.637Z,21.09
2022-08-21T16:37:45.388Z,20.97
2022-08-21T16:40:15.020Z,20.98
2022-08-21T16:42:45.136Z,21.01
2022-08-21T16:45:16.034Z,20.99
2022-08-21T16:47:44.746Z,20.97
2022-08-21T16:50:15.123Z,20.92
2022-08-21T16:52:44.686Z,20.87
2022-08-21T16:55:12.909Z,20.85
2022-08-21T16:57:41.316Z,20.86
2022-08-21T17:00:12.219Z,20.81
2022-08-21T17:02:48.375Z,20.79
2022-08-21T17:05:17.042Z,20.75
2022-08-21T17:07:46.856Z,20.75
2022-08-21T17:10:16.813Z,20.75
2022-08-21T17:12:55.751Z,20.76
2022-08-21T17:15:26.977Z,20.68
2022-08-21T17:17:56.537Z,20.64
2022-08-21T17:20:26.156Z,20.61
2022-08-21T17:22:58.307Z,20.58
2022-08-21T17:25:27.681Z,20.56
2022-08-21T17:27:56.775Z,20.54
2022-08-21T17:30:28.380Z,20.52
2022-08-21T17:32:59.137Z,20.48
2022-08-21T17:35:27.385Z,20.45
2022-08-21T17:37:57.214Z,20.42
2022-08-21T17:40:25.915Z,20.45
2022-08-21T17:42:54.322Z,20.47
2022-08-21T17:45:24.782Z,20.46
2022-08-21T17:47:53.234Z,20.47
2022-08-21T17:50:22.454Z,20.46
2022-08-21T17:52:51.221Z,20.43
2022-08-21T17:55:23.191Z,20.43
2022-08-21T17:57:55.870Z,20.43
2022-08-21T18:00:31.410Z,20.48
2022-08-21T18:03:03.172Z,20.50
2022-08-21T18:05:32.045Z,20.51
2022-08-21T18:08:03.457Z,20.53
2022-08-21T18:10:33.688Z,20.51
2022-08-21T18:13:06.833Z,20.60
2022-08-21T18:15:35.832Z,20.61
2022-08-21T18:18:06.804Z,20.63
2022-08-21T18:20:35.433Z,20.65
2022-08-21T18:23:03.655Z,20.63
2022-08-21T18:25:33.866Z,20.56
2022-08-21T18:28:06.102Z,20.59
2022-08-21T18:30:38.158Z,20.57
2022-08-21T18:33:09.953Z,20.57
2022-08-21T18:35:38.710Z,20.53
2022-08-21T18:38:07.286Z,20.46
2022-08-21T18:40:39.866Z,20.42
2022-08-21T18:43:11.177Z,20.43
2022-08-21T18:45:46.071Z,20.43
2022-08-21T18:48:17.830Z,20.44
2022-08-21T18:50:47.935Z,20.44
2022-08-21T18:53:24.034Z,20.46
2022-08-21T18:56:04.996Z,20.47
2022-08-21T18:58:35.347Z,20.50
2022-08-21T19:01:03.772Z,20.47
2022-08-21T19:03:34.249Z,20.52
2022-08-21T19:06:02.768Z,20.57
2022-08-21T19:08:31.317Z,20.64
2022-08-21T19:11:02.707Z,20.61
2022-08-21T19:13:31.868Z,20.57
2022-08-21T19:16:02.938Z,20.55
2022-08-21T19:18:35.384Z,20.58
2022-08-21T19:21:04.280Z,20.52
2022-08-21T19:23:35.243Z,20.51
2022-08-21T19:26:08.724Z,20.49
2022-08-21T19:28:44.871Z,20.46
2022-08-21T19:31:17.062Z,20.44
2022-08-21T19:33:51.335Z,20.43
2022-08-21T19:36:21.087Z,20.44
2022-08-21T19:38:49.401Z,20.41
2022-08-21T19:41:21.819Z,20.40
2022-08-21T19:43:54.545Z,20.28
2022-08-21T19:46:26.958Z,20.32
2022-08-21T19:48:57.014Z,20.32
2022-08-21T19:51:25.723Z,20.30
2022-08-21T19:53:56.949Z,20.28
2022-08-21T19:56:29.016Z,20.26
2022-08-21T19:58:58.488Z,20.24
2022-08-21T20:01:27.935Z,20.19
2022-08-21T20:03:57.636Z,20.17
2022-08-21T20:06:26.684Z,20.17
2022-08-21T20:08:56.176Z,20.13
2022-08-21T20:11:31.513Z,20.12
2022-08-21T20:14:00.930Z,20.07
2022-08-21T20:16:30.132Z,20.12
2022-08-21T20:18:58.879Z,20.10
2022-08-21T20:21:27.382Z,20.11
2022-08-21T20:23:56.072Z,20.13
2022-08-21T20:26:28.137Z,20.07
2022-08-21T20:28:57.963Z,20.08
2022-08-21T20:31:27.956Z,20.08
2022-08-21T20:33:56.208Z,20.07
2022-08-21T20:36:25.113Z,20.10
2022-08-21T20:38:53.582Z,20.06
2022-08-21T20:41:30.509Z,20.10
2022-08-21T20:44:01.559Z,20.09
2022-08-21T20:46:34.138Z,20.12
2022-08-21T20:49:02.253Z,20.11
2022-08-21T20:51:36.016Z,20.05
2022-08-21T20:54:09.165Z,20.02
2022-08-21T20:56:45.570Z,20.03
2022-08-21T20:59:24.710Z,20.05
2022-08-21T21:01:55.040Z,20.03
2022-08-21T21:04:38.967Z,20.01
2022-08-21T21:07:09.171Z,20.03
2022-08-21T21:09:42.579Z,19.95
2022-08-21T21:12:17.717Z,19.94
2022-08-21T21:15:01.756Z,19.91
2022-08-21T21:17:37.999Z,19.87
2022-08-21T21:20:12.026Z,19.88
2022-08-21T21:22:46.834Z,19.87
2022-08-21T21:25:19.767Z,19.85
2022-08-21T21:27:58.328Z,19.80
2022-08-21T21:30:32.465Z,19.76
2022-08-21T21:33:00.911Z,19.72
2022-08-21T21:35:36.568Z,19.65
2022-08-21T21:38:17.857Z,19.62
2022-08-21T21:40:53.804Z,19.62
2022-08-21T21:43:32.463Z,19.63
2022-08-21T21:46:19.596Z,19.58
2022-08-21T21:49:03.340Z,19.56
2022-08-21T21:51:45.858Z,19.60
2022-08-21T21:54:26.720Z,19.59
2022-08-21T21:57:04.737Z,19.52
2022-08-21T21:59:47.436Z,19.53
2022-08-21T22:02:25.986Z,19.52
2022-08-21T22:05:03.408Z,19.47
2022-08-21T22:07:40.045Z,19.46
2022-08-21T22:10:18.590Z,19.48
2022-08-21T22:12:56.313Z,19.51
2022-08-21T22:15:37.688Z,19.49
2022-08-21T22:18:10.621Z,19.46
2022-08-21T22:20:43.376Z,19.47
2022-08-21T22:23:17.702Z,19.42
2022-08-21T22:25:50.242Z,19.39
2022-08-21T22:28:25.743Z,19.43
2022-08-21T22:30:57.746Z,19.40
2022-08-21T22:33:29.755Z,19.40
2022-08-21T22:35:59.800Z,19.43
2022-08-21T22:38:36.971Z,19.31
2022-08-21T22:41:14.988Z,19.30
2022-08-21T22:43:53.724Z,19.27
2022-08-21T22:46:28.434Z,19.31
2022-08-21T22:49:03.740Z,19.27
2022-08-21T22:51:36.263Z,19.26
2022-08-21T22:54:05.493Z,19.23
2022-08-21T22:56:49.494Z,19.27
2022-08-21T22:59:26.647Z,19.25
2022-08-21T23:01:59.555Z,19.27
2022-08-21T23:04:29.557Z,19.24
2022-08-21T23:06:59.588Z,19.22
2022-08-21T23:09:35.437Z,19.21
2022-08-21T23:14:55.229Z,19.20
2022-08-21T23:17:35.435Z,19.17
2022-08-21T23:20:14.510Z,19.18
2022-08-21T23:22:53.716Z,19.21
2022-08-21T23:25:38.914Z,19.21
2022-08-21T23:28:13.196Z,19.28
2022-08-21T23:30:48.522Z,19.34
2022-08-21T23:33:38.642Z,19.36
2022-08-21T23:36:36.273Z,19.37
2022-08-21T23:39:20.474Z,19.34
2022-08-21T23:41:56.945Z,19.35
2022-08-21T23:44:38.250Z,19.31
2022-08-21T23:47:22.408Z,19.26
2022-08-21T23:50:00.043Z,19.23
2022-08-21T23:52:46.364Z,19.19
2022-08-21T23:55:29.622Z,19.16
2022-08-21T23:58:08.716Z,19.15
